Time;durP1;ratioP1;P1;durP2;ratioP2;P2;SDS_P1;SDS_P2;PMS_P1;PMS_P2;Temp;Humidity;BMP_temperature;BMP_pressure;BME280_temperature;BME280_humidity;BME280_pressure;Samples;Min_cycle;Max_cycle;Signal;HPM_P1;HPM_P2
2022/02/13 00:00:07;;;;;;;5.47;4.18;;;;;;;;;;5020006;28;20034;-62
2022/02/13 00:02:33;;;;;;;8.45;4.20;;;;;;;;;;5020766;28;20044;-62
2022/02/13 00:04:58;;;;;;;5.78;4.55;;;;;;;;;;5017939;28;20452;-62
2022/02/13 00:07:24;;;;;;;3.97;3.58;;;;;;;;;;5020928;28;20029;-63
2022/02/13 00:09:49;;;;;;;4.90;4.43;;;;;;;;;;5022456;28;20335;-62
2022/02/13 00:12:15;;;;;;;4.47;3.85;;;;;;;;;;5019795;28;20351;-62
2022/02/13 00:14:41;;;;;;;4.25;3.58;;;;;;;;;;5021059;28;20030;-62
2022/02/13 00:17:08;;;;;;;5.25;4.18;;;;;;;;;;5020785;28;20104;-62
2022/02/13 00:19:33;;;;;;;5.05;4.55;;;;;;;;;;5019267;28;20052;-62
2022/02/13 00:21:59;;;;;;;7.78;5.50;;;;;;;;;;5019845;28;20026;-62
2022/02/13 00:24:24;;;;;;;7.93;4.93;;;;;;;;;;5016632;28;20030;-62
2022/02/13 00:26:49;;;;;;;15.63;4.97;;;;;;;;;;5021832;28;20049;-61
2022/02/13 00:29:15;;;;;;;4.15;3.75;;;;;;;;;;5022023;28;20033;-62
2022/02/13 00:31:40;;;;;;;4.70;3.97;;;;;;;;;;5021999;28;20052;-61
2022/02/13 00:34:06;;;;;;;4.40;4.00;;;;;;;;;;5017418;28;20029;-62
2022/02/13 00:36:31;;;;;;;4.25;3.85;;;;;;;;;;5018742;28;20518;-61
2022/02/13 00:38:57;;;;;;;4.07;3.60;;;;;;;;;;5018740;28;20120;-61
2022/02/13 00:41:22;;;;;;;4.13;3.70;;;;;;;;;;5019954;28;20375;-62
2022/02/13 00:43:48;;;;;;;3.90;3.50;;;;;;;;;;5023074;28;20033;-62
2022/02/13 00:46:13;;;;;;;5.50;5.00;;;;;;;;;;5019097;28;20068;-62
2022/02/13 00:48:39;;;;;;;5.57;4.68;;;;;;;;;;5019066;28;20040;-62
2022/02/13 00:51:04;;;;;;;6.22;5.40;;;;;;;;;;5020693;28;20033;-62
2022/02/13 00:53:30;;;;;;;6.13;4.57;;;;;;;;;;5017938;28;20407;-62
2022/02/13 00:55:55;;;;;;;15.77;4.47;;;;;;;;;;5019248;28;20092;-62
2022/02/13 00:58:21;;;;;;;5.05;4.32;;;;;;;;;;5020820;28;20068;-62
2022/02/13 01:00:46;;;;;;;5.15;4.47;;;;;;;;;;5018089;28;20026;-62
2022/02/13 01:03:11;;;;;;;4.40;4.00;;;;;;;;;;5018332;28;20501;-62
2022/02/13 01:05:37;;;;;;;5.07;4.57;;;;;;;;;;5020114;28;20052;-62
2022/02/13 01:08:04;;;;;;;5.15;4.20;;;;;;;;;;5021364;28;20113;-62
2022/02/13 01:10:31;;;;;;;4.50;4.10;;;;;;;;;;5017212;28;20036;-62
2022/02/13 01:12:58;;;;;;;6.35;4.93;;;;;;;;;;5016723;28;20384;-62
2022/02/13 01:15:24;;;;;;;5.07;4.40;;;;;;;;;;5026259;28;20044;-62
2022/02/13 01:17:50;;;;;;;4.07;3.60;;;;;;;;;;5019195;28;20494;-64
2022/02/13 01:20:16;;;;;;;5.18;4.68;;;;;;;;;;5017480;28;20062;-62
2022/02/13 01:22:41;;;;;;;4.63;4.18;;;;;;;;;;5018046;28;20452;-62
2022/02/13 01:25:07;;;;;;;3.78;3.47;;;;;;;;;;5019579;28;20060;-63
2022/02/13 01:27:33;;;;;;;4.97;4.53;;;;;;;;;;5020841;28;20083;-63
2022/02/13 01:29:58;;;;;;;4.25;3.85;;;;;;;;;;5018461;28;20099;-63
2022/02/13 01:32:24;;;;;;;4.43;4.03;;;;;;;;;;5020721;28;20124;-62
2022/02/13 01:34:49;;;;;;;4.55;4.15;;;;;;;;;;5019871;28;20032;-62
2022/02/13 01:37:14;;;;;;;4.20;3.78;;;;;;;;;;5016952;28;20095;-62
2022/02/13 01:39:40;;;;;;;3.97;3.60;;;;;;;;;;5019889;28;20117;-62
2022/02/13 01:42:09;;;;;;;4.15;3.75;;;;;;;;;;5019729;28;20109;-62
2022/02/13 01:44:35;;;;;;;4.97;4.47;;;;;;;;;;5019743;28;20030;-63
2022/02/13 01:47:02;;;;;;;4.60;4.05;;;;;;;;;;5019566;28;20049;-63
2022/02/13 01:49:27;;;;;;;4.55;4.15;;;;;;;;;;5018653;28;20047;-63
2022/02/13 01:51:55;;;;;;;4.53;4.13;;;;;;;;;;5017905;28;20037;-63
2022/02/13 01:54:21;;;;;;;5.15;4.57;;;;;;;;;;5025392;28;20053;-63
2022/02/13 01:56:46;;;;;;;4.78;4.38;;;;;;;;;;5019629;28;20084;-63
2022/02/13 01:59:12;;;;;;;18.88;5.68;;;;;;;;;;5018168;28;20053;-64
2022/02/13 02:01:38;;;;;;;4.63;4.22;;;;;;;;;;5021295;28;20454;-63
2022/02/13 02:04:04;;;;;;;11.93;4.85;;;;;;;;;;5019890;28;20037;-64
2022/02/13 02:06:29;;;;;;;4.97;4.53;;;;;;;;;;5018648;28;20371;-64
2022/02/13 02:08:55;;;;;;;4.10;3.70;;;;;;;;;;5021223;28;20116;-64
2022/02/13 02:11:21;;;;;;;4.15;3.55;;;;;;;;;;5017576;28;20115;-63
2022/02/13 02:13:46;;;;;;;4.53;4.13;;;;;;;;;;5018091;28;20437;-64
2022/02/13 02:16:11;;;;;;;4.45;4.03;;;;;;;;;;5020346;28;20568;-63
2022/02/13 02:18:37;;;;;;;4.40;4.00;;;;;;;;;;5015810;28;20479;-63
2022/02/13 02:21:04;;;;;;;4.13;3.72;;;;;;;;;;5019724;28;20037;-63
2022/02/13 02:23:31;;;;;;;8.57;4.40;;;;;;;;;;5017136;28;20026;-63
2022/02/13 02:25:56;;;;;;;4.95;4.53;;;;;;;;;;5014991;28;20045;-63
2022/02/13 02:28:22;;;;;;;5.15;4.55;;;;;;;;;;5020520;28;20022;-63
2022/02/13 02:30:47;;;;;;;5.10;4.60;;;;;;;;;;5017420;28;20128;-63
2022/02/13 02:33:12;;;;;;;5.43;4.93;;;;;;;;;;5017860;28;20099;-63
2022/02/13 02:35:39;;;;;;;5.80;4.30;;;;;;;;;;5018190;28;20037;-63
2022/02/13 02:38:04;;;;;;;4.32;3.90;;;;;;;;;;5018490;28;20025;-63
2022/02/13 02:40:29;;;;;;;4.57;4.18;;;;;;;;;;5017342;28;20056;-63
2022/02/13 02:42:55;;;;;;;4.95;4.53;;;;;;;;;;5018990;28;20491;-64
2022/02/13 02:45:20;;;;;;;4.75;4.35;;;;;;;;;;5018974;28;20107;-66
2022/02/13 02:47:47;;;;;;;7.28;5.50;;;;;;;;;;5018017;28;20459;-65
2022/02/13 02:50:13;;;;;;;4.80;4.38;;;;;;;;;;5019378;28;20034;-62
2022/02/13 02:52:40;;;;;;;4.47;4.07;;;;;;;;;;5020826;28;20036;-65
2022/02/13 02:55:06;;;;;;;4.70;4.00;;;;;;;;;;5017464;28;20080;-65
2022/02/13 02:57:32;;;;;;;4.22;3.83;;;;;;;;;;5017243;28;20452;-64
2022/02/13 02:59:58;;;;;;;5.60;5.10;;;;;;;;;;5017881;28;20025;-64
2022/02/13 03:02:24;;;;;;;6.03;4.97;;;;;;;;;;5018609;28;20369;-64
2022/02/13 03:04:50;;;;;;;4.28;3.88;;;;;;;;;;5020554;28;20030;-64
2022/02/13 03:07:15;;;;;;;5.32;3.95;;;;;;;;;;5021245;28;20081;-64
2022/02/13 03:09:41;;;;;;;4.47;4.07;;;;;;;;;;5021608;28;20458;-64
2022/02/13 03:12:07;;;;;;;5.80;4.53;;;;;;;;;;5022360;28;20033;-64
2022/02/13 03:14:33;;;;;;;4.68;4.20;;;;;;;;;;5021288;28;20033;-64
2022/02/13 03:16:58;;;;;;;4.22;3.83;;;;;;;;;;5019234;28;20034;-64
2022/02/13 03:19:23;;;;;;;5.20;4.70;;;;;;;;;;5020575;28;20053;-64
2022/02/13 03:21:49;;;;;;;5.50;4.32;;;;;;;;;;5020516;28;20463;-64
2022/02/13 03:24:14;;;;;;;4.93;4.47;;;;;;;;;;5020697;28;20022;-64
2022/02/13 03:26:39;;;;;;;6.75;4.65;;;;;;;;;;5021849;28;20036;-65
2022/02/13 03:29:05;;;;;;;7.50;5.82;;;;;;;;;;5021735;28;20026;-65
2022/02/13 03:31:30;;;;;;;6.38;3.95;;;;;;;;;;5020654;28;20037;-65
2022/02/13 03:33:56;;;;;;;5.22;4.70;;;;;;;;;;5022362;28;20061;-65
2022/02/13 03:36:21;;;;;;;5.03;4.63;;;;;;;;;;5021602;28;20041;-65
2022/02/13 03:38:47;;;;;;;4.55;4.15;;;;;;;;;;5019428;28;20068;-66
2022/02/13 03:41:13;;;;;;;5.90;5.15;;;;;;;;;;5020489;28;20042;-66
2022/02/13 03:43:38;;;;;;;6.47;3.88;;;;;;;;;;5018436;28;20460;-66
2022/02/13 03:46:03;;;;;;;4.93;4.40;;;;;;;;;;5021588;28;20341;-66
2022/02/13 03:48:29;;;;;;;5.15;4.72;;;;;;;;;;5020498;28;20026;-66
2022/02/13 03:50:55;;;;;;;5.25;4.68;;;;;;;;;;5028793;28;20079;-66
2022/02/13 03:53:20;;;;;;;4.35;3.78;;;;;;;;;;5021866;28;20034;-66
2022/02/13 03:55:45;;;;;;;5.32;4.82;;;;;;;;;;5021747;28;20481;-66
2022/02/13 03:58:11;;;;;;;4.53;4.13;;;;;;;;;;5019797;28;20038;-67
2022/02/13 04:00:36;;;;;;;4.50;4.07;;;;;;;;;;5021397;28;20033;-66
2022/02/13 04:03:02;;;;;;;5.22;4.72;;;;;;;;;;5019270;28;20034;-66
2022/02/13 04:05:27;;;;;;;8.10;5.03;;;;;;;;;;5019989;28;20037;-67
2022/02/13 04:07:53;;;;;;;5.03;4.53;;;;;;;;;;5022401;28;20077;-66
2022/02/13 04:10:18;;;;;;;4.65;4.25;;;;;;;;;;5017182;28;20087;-66
2022/02/13 04:12:43;;;;;;;4.80;3.92;;;;;;;;;;5023531;28;20037;-66
2022/02/13 04:15:12;;;;;;;3.75;3.45;;;;;;;;;;5017308;28;20037;-67
2022/02/13 04:17:38;;;;;;;4.20;3.80;;;;;;;;;;5020601;28;20123;-66
2022/02/13 04:20:04;;;;;;;6.28;4.45;;;;;;;;;;5017994;28;20085;-66
2022/02/13 04:22:30;;;;;;;5.15;4.38;;;;;;;;;;5019979;28;20037;-66
2022/02/13 04:24:55;;;;;;;4.65;4.25;;;;;;;;;;5018185;28;20025;-66
2022/02/13 04:27:21;;;;;;;4.47;4.07;;;;;;;;;;5022916;28;20160;-66
2022/02/13 04:29:46;;;;;;;6.05;4.97;;;;;;;;;;5020647;28;20030;-66
2022/02/13 04:32:12;;;;;;;4.55;4.15;;;;;;;;;;5021639;28;20357;-66
2022/02/13 04:34:37;;;;;;;7.53;5.15;;;;;;;;;;5023926;28;20104;-66
2022/02/13 04:37:03;;;;;;;3.35;3.05;;;;;;;;;;5021137;28;20084;-66
2022/02/13 04:39:28;;;;;;;3.42;3.13;;;;;;;;;;5023666;28;20048;-67
2022/02/13 04:41:54;;;;;;;4.50;4.10;;;;;;;;;;5017341;28;20047;-66
2022/02/13 04:44:19;;;;;;;5.05;4.55;;;;;;;;;;5018455;28;20068;-66
2022/02/13 04:46:44;;;;;;;7.40;4.70;;;;;;;;;;5020504;28;20439;-67
2022/02/13 04:49:10;;;;;;;4.60;4.13;;;;;;;;;;5019280;28;20022;-66
2022/02/13 04:51:35;;;;;;;5.40;4.15;;;;;;;;;;5022132;28;20446;-66
2022/02/13 04:54:00;;;;;;;4.32;3.92;;;;;;;;;;5020308;28;20033;-66
2022/02/13 04:56:26;;;;;;;5.80;5.30;;;;;;;;;;5021188;28;20042;-66
2022/02/13 04:58:51;;;;;;;4.68;4.10;;;;;;;;;;5018415;28;20025;-66
2022/02/13 05:01:17;;;;;;;9.13;4.28;;;;;;;;;;5018778;28;20121;-66
2022/02/13 05:03:42;;;;;;;5.68;4.80;;;;;;;;;;5018483;28;20034;-66
2022/02/13 05:06:08;;;;;;;5.00;4.13;;;;;;;;;;5020676;28;20088;-66
2022/02/13 05:08:33;;;;;;;4.32;3.85;;;;;;;;;;5018283;28;20108;-67
2022/02/13 05:10:58;;;;;;;7.43;5.75;;;;;;;;;;5020415;28;20045;-66
2022/02/13 05:13:24;;;;;;;6.22;5.63;;;;;;;;;;5016889;28;20038;-67
2022/02/13 05:15:49;;;;;;;4.85;4.40;;;;;;;;;;5018134;28;20129;-66
2022/02/13 05:18:15;;;;;;;4.65;4.25;;;;;;;;;;5020487;28;20037;-67
2022/02/13 05:20:40;;;;;;;4.18;3.78;;;;;;;;;;5016718;28;20105;-66
2022/02/13 05:23:05;;;;;;;4.43;4.03;;;;;;;;;;5016598;28;20526;-66
2022/02/13 05:25:31;;;;;;;5.32;4.75;;;;;;;;;;5017270;28;20067;-66
2022/02/13 05:27:56;;;;;;;6.35;4.90;;;;;;;;;;5017141;28;20455;-66
2022/02/13 05:30:22;;;;;;;4.90;4.45;;;;;;;;;;5018656;28;20034;-66
2022/02/13 05:32:47;;;;;;;4.93;4.43;;;;;;;;;;5017969;28;20041;-66
2022/02/13 05:35:12;;;;;;;7.10;5.30;;;;;;;;;;5020836;28;20041;-66
2022/02/13 05:37:39;;;;;;;6.82;4.90;;;;;;;;;;5017715;28;20120;-66
2022/02/13 05:40:05;;;;;;;5.72;5.20;;;;;;;;;;5018261;28;20030;-66
2022/02/13 05:42:31;;;;;;;7.50;5.50;;;;;;;;;;5017507;28;20115;-62
2022/02/13 05:44:56;;;;;;;5.57;5.07;;;;;;;;;;5017603;28;20029;-66
2022/02/13 05:47:22;;;;;;;4.53;4.13;;;;;;;;;;5014572;28;20080;-66
2022/02/13 05:49:47;;;;;;;5.70;4.97;;;;;;;;;;5020729;28;20120;-66
2022/02/13 05:52:13;;;;;;;4.63;4.20;;;;;;;;;;5017773;28;20041;-66
2022/02/13 05:54:39;;;;;;;4.78;4.32;;;;;;;;;;5019321;28;20037;-67
2022/02/13 05:57:05;;;;;;;5.10;3.95;;;;;;;;;;5017868;28;20034;-66
2022/02/13 05:59:30;;;;;;;5.20;4.80;;;;;;;;;;5019833;28;20030;-66
2022/02/13 06:01:56;;;;;;;5.38;4.85;;;;;;;;;;5019488;28;20636;-66
2022/02/13 06:04:22;;;;;;;5.60;5.10;;;;;;;;;;5017911;28;20045;-66
2022/02/13 06:06:52;;;;;;;4.82;4.43;;;;;;;;;;5022056;28;20408;-65
2022/02/13 06:09:18;;;;;;;4.90;4.50;;;;;;;;;;5021652;28;20029;-66
2022/02/13 06:11:44;;;;;;;4.90;4.03;;;;;;;;;;5015664;28;20099;-66
2022/02/13 06:14:10;;;;;;;5.78;5.05;;;;;;;;;;5019082;28;20034;-67
2022/02/13 06:16:35;;;;;;;5.50;3.70;;;;;;;;;;5018084;28;20033;-67
2022/02/13 06:19:01;;;;;;;4.47;4.07;;;;;;;;;;5020271;28;20070;-67
2022/02/13 06:21:26;;;;;;;6.85;5.05;;;;;;;;;;5017623;28;20037;-65
2022/02/13 06:23:52;;;;;;;5.90;5.30;;;;;;;;;;5018025;28;20053;-68
2022/02/13 06:26:17;;;;;;;6.55;5.38;;;;;;;;;;5019238;28;20116;-66
2022/02/13 06:28:43;;;;;;;4.88;4.40;;;;;;;;;;5020205;28;20145;-66
2022/02/13 06:31:08;;;;;;;5.18;4.68;;;;;;;;;;5017577;28;20550;-67
2022/02/13 06:33:34;;;;;;;4.68;4.25;;;;;;;;;;5016801;28;20030;-67
2022/02/13 06:35:59;;;;;;;5.18;3.97;;;;;;;;;;5018518;28;20469;-66
2022/02/13 06:38:24;;;;;;;4.50;4.07;;;;;;;;;;5020623;28;20041;-65
2022/02/13 06:40:50;;;;;;;5.80;4.65;;;;;;;;;;5020472;28;20030;-66
2022/02/13 06:43:15;;;;;;;5.18;4.13;;;;;;;;;;5023796;28;20454;-66
2022/02/13 06:45:41;;;;;;;5.18;4.55;;;;;;;;;;5027805;28;20527;-65
2022/02/13 06:48:08;;;;;;;4.82;4.43;;;;;;;;;;5021703;28;20479;-65
2022/02/13 06:50:34;;;;;;;6.38;5.32;;;;;;;;;;5019882;28;20037;-66
2022/02/13 06:52:59;;;;;;;4.20;3.90;;;;;;;;;;5022606;28;20044;-66
2022/02/13 06:55:25;;;;;;;4.00;3.63;;;;;;;;;;5021790;28;20335;-65
2022/02/13 06:57:51;;;;;;;5.43;4.93;;;;;;;;;;5022967;28;20037;-65
2022/02/13 07:00:17;;;;;;;5.35;4.85;;;;;;;;;;5021863;28;20045;-65
2022/02/13 07:02:43;;;;;;;4.50;4.10;;;;;;;;;;5018527;28;20578;-66
2022/02/13 07:05:09;;;;;;;4.80;4.35;;;;;;;;;;5020868;28;20036;-66
2022/02/13 07:07:36;;;;;;;4.75;4.35;;;;;;;;;;5019225;28;20484;-66
2022/02/13 07:10:03;;;;;;;4.93;4.53;;;;;;;;;;5022098;28;20034;-65
2022/02/13 07:12:28;;;;;;;6.68;5.15;;;;;;;;;;5020047;28;20378;-66
2022/02/13 07:14:54;;;;;;;5.47;4.97;;;;;;;;;;5018651;28;20112;-66
2022/02/13 07:17:19;;;;;;;7.22;5.20;;;;;;;;;;5020710;28;20407;-65
2022/02/13 07:19:44;;;;;;;5.32;4.43;;;;;;;;;;5023625;28;20041;-65
2022/02/13 07:22:10;;;;;;;4.78;4.30;;;;;;;;;;5024050;28;20037;-65
2022/02/13 07:24:37;;;;;;;4.82;4.43;;;;;;;;;;5019888;28;20058;-65
2022/02/13 07:27:04;;;;;;;5.85;4.85;;;;;;;;;;5019015;28;20037;-66
2022/02/13 07:29:30;;;;;;;3.90;3.55;;;;;;;;;;5020692;28;20030;-66
2022/02/13 07:31:55;;;;;;;5.00;4.55;;;;;;;;;;5019882;28;20036;-65
2022/02/13 07:34:21;;;;;;;6.93;4.63;;;;;;;;;;5021686;28;20034;-65
2022/02/13 07:36:54;;;;;;;6.25;5.20;;;;;;;;;;5023736;28;20116;-65
2022/02/13 07:39:20;;;;;;;21.10;5.45;;;;;;;;;;5023285;28;20041;-65
2022/02/13 07:41:45;;;;;;;6.55;5.53;;;;;;;;;;5021357;28;20043;-65
2022/02/13 07:44:11;;;;;;;6.35;5.75;;;;;;;;;;5024478;28;20021;-65
2022/02/13 07:46:37;;;;;;;19.73;15.02;;;;;;;;;;5020773;28;20661;-63
2022/02/13 07:49:05;;;;;;;7.50;6.25;;;;;;;;;;5017978;28;20030;-64
2022/02/13 07:51:34;;;;;;;6.70;5.75;;;;;;;;;;5020683;28;20036;-63
2022/02/13 07:54:00;;;;;;;6.50;5.35;;;;;;;;;;5018534;28;20448;-65
2022/02/13 07:56:26;;;;;;;5.63;5.10;;;;;;;;;;5019527;28;20406;-63
2022/02/13 07:58:52;;;;;;;5.85;5.28;;;;;;;;;;5020704;28;20119;-62
2022/02/13 08:01:19;;;;;;;8.40;7.57;;;;;;;;;;5022443;28;20045;-63
2022/02/13 08:03:45;;;;;;;7.18;6.57;;;;;;;;;;5018086;28;20042;-65
2022/02/13 08:06:12;;;;;;;8.18;5.10;;;;;;;;;;5024430;28;20025;-64
2022/02/13 08:08:37;;;;;;;5.85;5.25;;;;;;;;;;5024355;28;20033;-64
2022/02/13 08:11:04;;;;;;;7.72;5.43;;;;;;;;;;5028329;28;20041;-65
2022/02/13 08:13:30;;;;;;;5.32;4.82;;;;;;;;;;5018405;28;20479;-65
2022/02/13 08:15:55;;;;;;;7.40;5.60;;;;;;;;;;5020631;28;20036;-64
2022/02/13 08:18:20;;;;;;;8.27;6.22;;;;;;;;;;5020054;28;20049;-65
2022/02/13 08:20:46;;;;;;;5.22;4.75;;;;;;;;;;5021614;28;20038;-66
2022/02/13 08:23:12;;;;;;;7.47;6.65;;;;;;;;;;5020495;28;20427;-65
2022/02/13 08:25:40;;;;;;;13.93;5.88;;;;;;;;;;5021463;28;20045;-66
2022/02/13 08:28:05;;;;;;;5.47;4.97;;;;;;;;;;5019923;28;20041;-66
2022/02/13 08:30:31;;;;;;;6.45;5.85;;;;;;;;;;5016118;28;20040;-65
2022/02/13 08:32:58;;;;;;;5.53;5.03;;;;;;;;;;5016674;28;20037;-65
2022/02/13 08:35:24;;;;;;;5.38;4.88;;;;;;;;;;5017593;28;20088;-66
2022/02/13 08:37:50;;;;;;;6.97;6.28;;;;;;;;;;5019389;28;20060;-65
2022/02/13 08:40:15;;;;;;;6.13;5.53;;;;;;;;;;5021494;28;20761;-66
2022/02/13 08:42:41;;;;;;;5.22;4.82;;;;;;;;;;5020279;28;20076;-64
2022/02/13 08:45:07;;;;;;;11.50;5.90;;;;;;;;;;5022391;28;20061;-64
2022/02/13 08:47:32;;;;;;;5.43;4.93;;;;;;;;;;5020104;28;20053;-63
2022/02/13 08:49:58;;;;;;;5.20;4.72;;;;;;;;;;5017653;28;20037;-65
2022/02/13 08:52:23;;;;;;;5.68;5.15;;;;;;;;;;5017303;28;20558;-64
2022/02/13 08:54:48;;;;;;;8.52;5.25;;;;;;;;;;5018503;28;20041;-64
2022/02/13 08:57:14;;;;;;;5.80;5.30;;;;;;;;;;5017368;28;20021;-64
2022/02/13 08:59:40;;;;;;;14.00;7.88;;;;;;;;;;5016446;28;20037;-64
2022/02/13 09:02:06;;;;;;;10.63;7.95;;;;;;;;;;5017702;28;20067;-63
2022/02/13 09:04:31;;;;;;;10.48;7.55;;;;;;;;;;5021966;28;20550;-64
2022/02/13 09:07:00;;;;;;;6.88;6.18;;;;;;;;;;5019275;28;20049;-63
2022/02/13 09:09:26;;;;;;;6.65;5.95;;;;;;;;;;5017595;28;20411;-62
2022/02/13 09:11:52;;;;;;;7.65;6.20;;;;;;;;;;5018049;28;20037;-62
2022/02/13 09:14:17;;;;;;;4.57;4.10;;;;;;;;;;5020629;28;20367;-62
2022/02/13 09:16:42;;;;;;;5.82;5.22;;;;;;;;;;5021292;28;20420;-61
2022/02/13 09:19:08;;;;;;;5.95;4.35;;;;;;;;;;5020364;28;20459;-61
2022/02/13 09:21:37;;;;;;;5.00;4.60;;;;;;;;;;5020750;28;20037;-61
2022/02/13 09:24:03;;;;;;;5.97;5.38;;;;;;;;;;5018877;28;20427;-60
2022/02/13 09:26:29;;;;;;;6.07;5.47;;;;;;;;;;5017407;28;20038;-60
2022/02/13 09:28:54;;;;;;;5.60;5.10;;;;;;;;;;5018708;28;20036;-60
2022/02/13 09:31:20;;;;;;;5.75;5.20;;;;;;;;;;5017255;28;20477;-61
2022/02/13 09:33:45;;;;;;;6.15;5.65;;;;;;;;;;5020965;28;20122;-59
2022/02/13 09:36:12;;;;;;;6.32;5.75;;;;;;;;;;5019323;28;20049;-59
2022/02/13 09:38:38;;;;;;;5.80;5.30;;;;;;;;;;5021045;28;20461;-59
2022/02/13 09:41:05;;;;;;;6.28;5.70;;;;;;;;;;5019091;28;20057;-59
2022/02/13 09:43:31;;;;;;;5.75;5.20;;;;;;;;;;5018043;28;20465;-60
2022/02/13 09:45:57;;;;;;;5.97;5.28;;;;;;;;;;5021085;28;20059;-59
2022/02/13 09:48:27;;;;;;;5.78;5.25;;;;;;;;;;5014856;28;20052;-60
2022/02/13 09:50:54;;;;;;;5.57;5.07;;;;;;;;;;5022125;28;20041;-60
2022/02/13 09:53:20;;;;;;;5.43;4.93;;;;;;;;;;5020654;28;20041;-60
2022/02/13 09:55:46;;;;;;;6.07;5.57;;;;;;;;;;5018713;28;20026;-58
2022/02/13 09:58:12;;;;;;;5.85;5.30;;;;;;;;;;5019429;28;20823;-59
2022/02/13 10:00:59;;;;;;;6.05;5.05;;;;;;;;;;5019033;28;20049;-60
2022/02/13 10:03:27;;;;;;;5.60;5.13;;;;;;;;;;5018182;28;20096;-59
2022/02/13 10:05:57;;;;;;;6.85;5.95;;;;;;;;;;5019522;28;20044;-59
2022/02/13 10:08:28;;;;;;;7.17;4.73;;;;;;;;;;5019669;28;20069;-59
2022/02/13 10:11:07;;;;;;;5.90;5.40;;;;;;;;;;5020623;28;20030;-59
2022/02/13 10:13:41;;;;;;;5.85;5.30;;;;;;;;;;5026346;28;20360;-59
2022/02/13 10:16:14;;;;;;;4.93;4.47;;;;;;;;;;5019243;28;20042;-59
2022/02/13 10:18:47;;;;;;;6.45;5.85;;;;;;;;;;5018738;28;20038;-60
2022/02/13 10:21:29;;;;;;;6.47;5.88;;;;;;;;;;5020035;28;20033;-60
2022/02/13 10:24:29;;;;;;;6.82;5.13;;;;;;;;;;5019725;28;20018;-59
2022/02/13 10:26:57;;;;;;;6.63;6.00;;;;;;;;;;5018324;28;20049;-60
2022/02/13 10:29:27;;;;;;;6.35;5.75;;;;;;;;;;5017017;28;20359;-59
2022/02/13 10:32:18;;;;;;;6.22;5.63;;;;;;;;;;5020696;28;20037;-59
2022/02/13 10:35:03;;;;;;;;;;;;;;;;;;5017070;28;20041;-60
2022/02/13 10:37:45;;;;;;;4.72;4.32;;;;;;;;;;5017267;28;19913;-59
2022/02/13 10:40:23;;;;;;;6.40;5.80;;;;;;;;;;5017534;28;20352;-59
2022/02/13 10:42:59;;;;;;;5.78;5.25;;;;;;;;;;5017452;28;20057;-59
2022/02/13 10:45:30;;;;;;;6.90;5.80;;;;;;;;;;5017799;28;20034;-59
2022/02/13 10:47:58;;;;;;;5.45;5.00;;;;;;;;;;5019138;28;20040;-59
2022/02/13 10:50:25;;;;;;;6.25;5.65;;;;;;;;;;5016715;28;20092;-59
2022/02/13 10:52:53;;;;;;;6.97;6.30;;;;;;;;;;5015761;28;20092;-59
2022/02/13 10:55:18;;;;;;;10.73;6.78;;;;;;;;;;5018357;28;20033;-60
2022/02/13 10:57:45;;;;;;;6.93;6.00;;;;;;;;;;5021901;28;20036;-61
2022/02/13 11:00:13;;;;;;;5.13;4.70;;;;;;;;;;5020490;28;20026;-60
2022/02/13 11:02:41;;;;;;;6.20;5.60;;;;;;;;;;5017710;28;20049;-60
2022/02/13 11:05:08;;;;;;;6.90;4.97;;;;;;;;;;5018728;28;20036;-60
2022/02/13 11:07:41;;;;;;;6.13;5.63;;;;;;;;;;5015207;28;20560;-60
2022/02/13 11:10:15;;;;;;;6.00;5.45;;;;;;;;;;5018553;28;20048;-60
2022/02/13 11:12:43;;;;;;;6.72;6.13;;;;;;;;;;5016582;28;20033;-61
2022/02/13 11:15:20;;;;;;;6.10;5.60;;;;;;;;;;5015050;28;20033;-58
2022/02/13 11:17:48;;;;;;;6.50;5.90;;;;;;;;;;5016823;28;20180;-59
2022/02/13 11:20:18;;;;;;;6.85;6.20;;;;;;;;;;5017400;28;20038;-59
2022/02/13 11:22:53;;;;;;;7.80;6.35;;;;;;;;;;5017289;28;20495;-58
2022/02/13 11:25:57;;;;;;;6.60;5.90;;;;;;;;;;5019655;28;20060;-60
2022/02/13 11:28:27;;;;;;;6.90;6.20;;;;;;;;;;5019049;28;20098;-60
2022/02/13 11:30:57;;;;;;;7.22;6.63;;;;;;;;;;5018760;28;20038;-64
2022/02/13 11:33:22;;;;;;;6.45;5.85;;;;;;;;;;5021538;28;20466;-61
2022/02/13 11:36:03;;;;;;;6.43;5.82;;;;;;;;;;5027458;28;20080;-60
2022/02/13 11:38:37;;;;;;;6.00;5.50;;;;;;;;;;5020810;28;20037;-60
2022/02/13 11:41:06;;;;;;;9.13;7.28;;;;;;;;;;5027075;28;20045;-60
2022/02/13 11:43:59;;;;;;;7.30;5.88;;;;;;;;;;5020278;28;20514;-60
2022/02/13 11:46:27;;;;;;;6.85;6.25;;;;;;;;;;5020866;28;20026;-60
2022/02/13 11:49:00;;;;;;;5.95;5.22;;;;;;;;;;5021010;28;20083;-60
2022/02/13 11:51:52;;;;;;;7.60;6.72;;;;;;;;;;5020927;28;20033;-60
2022/02/13 11:54:47;;;;;;;7.20;6.57;;;;;;;;;;5016977;28;20499;-60
2022/02/13 11:57:15;;;;;;;6.60;6.00;;;;;;;;;;5023948;28;20276;-62
2022/02/13 12:00:00;;;;;;;17.20;12.10;;;;;;;;;;5021230;28;20032;-61
2022/02/13 12:02:31;;;;;;;6.80;6.25;;;;;;;;;;5021554;28;20121;-61
2022/02/13 12:05:06;;;;;;;6.90;6.13;;;;;;;;;;5017502;28;20068;-60
2022/02/13 12:07:37;;;;;;;6.70;6.10;;;;;;;;;;5020417;28;20032;-60
2022/02/13 12:10:09;;;;;;;13.80;6.82;;;;;;;;;;5016674;28;20048;-60
2022/02/13 12:12:35;;;;;;;6.68;6.18;;;;;;;;;;5018587;28;20037;-60
2022/02/13 12:15:01;;;;;;;24.70;18.80;;;;;;;;;;5019923;28;20030;-60
2022/02/13 12:17:28;;;;;;;12.80;11.60;;;;;;;;;;5020109;28;20064;-59
2022/02/13 12:20:20;;;;;;;14.38;12.45;;;;;;;;;;5019737;28;20029;-60
2022/02/13 12:22:46;;;;;;;29.33;22.73;;;;;;;;;;5019474;28;20067;-60
2022/02/13 12:25:11;;;;;;;18.80;14.65;;;;;;;;;;5019891;28;20033;-59
2022/02/13 12:27:41;;;;;;;6.40;5.90;;;;;;;;;;5016773;28;20712;-60
2022/02/13 12:30:08;;;;;;;8.20;7.40;;;;;;;;;;5017339;28;20158;-61
2022/02/13 12:32:35;;;;;;;7.13;6.43;;;;;;;;;;5017245;28;20048;-60
2022/02/13 12:35:07;;;;;;;10.55;6.72;;;;;;;;;;5018655;28;20110;-60
2022/02/13 12:37:38;;;;;;;14.10;9.77;;;;;;;;;;5020259;28;20096;-60
2022/02/13 12:40:05;;;;;;;18.77;8.70;;;;;;;;;;5019921;28;20030;-59
2022/02/13 12:42:35;;;;;;;14.73;8.02;;;;;;;;;;5017795;28;20041;-64
2022/02/13 12:45:04;;;;;;;6.03;5.53;;;;;;;;;;5018511;28;20025;-65
2022/02/13 12:47:32;;;;;;;7.65;6.95;;;;;;;;;;5019369;28;20041;-64
2022/02/13 12:50:18;;;;;;;5.57;5.07;;;;;;;;;;5019463;28;20029;-65
2022/02/13 12:52:44;;;;;;;6.75;6.05;;;;;;;;;;5016237;28;20030;-64
2022/02/13 12:55:12;;;;;;;5.82;5.00;;;;;;;;;;5017452;28;20037;-63
2022/02/13 12:57:38;;;;;;;10.35;6.10;;;;;;;;;;5019383;28;20037;-63
2022/02/13 13:00:06;;;;;;;6.70;6.10;;;;;;;;;;5018448;28;20030;-63
2022/02/13 13:02:31;;;;;;;6.43;5.43;;;;;;;;;;5021035;28;20469;-64
2022/02/13 13:05:17;;;;;;;7.65;6.90;;;;;;;;;;5017716;28;20025;-64
2022/02/13 13:07:44;;;;;;;6.75;5.95;;;;;;;;;;5020996;28;20038;-64
2022/02/13 13:10:27;;;;;;;6.63;6.03;;;;;;;;;;5017555;28;20062;-64
2022/02/13 13:13:08;;;;;;;16.17;12.20;;;;;;;;;;5018698;28;20052;-65
2022/02/13 13:15:34;;;;;;;6.75;5.32;;;;;;;;;;5015630;28;20030;-64
2022/02/13 13:18:01;;;;;;;10.77;7.90;;;;;;;;;;5017640;28;20037;-64
2022/02/13 13:20:36;;;;;;;6.18;5.68;;;;;;;;;;5017138;28;20088;-64
2022/02/13 13:23:13;;;;;;;5.45;5.03;;;;;;;;;;5016266;28;20034;-65
2022/02/13 13:25:44;;;;;;;6.57;6.05;;;;;;;;;;5018658;28;20037;-64
2022/02/13 13:28:10;;;;;;;;;;;;;;;;;;5017468;28;20048;-64
2022/02/13 13:30:35;;;;;;;6.65;6.05;;;;;;;;;;5019227;28;20016;-64
2022/02/13 13:33:03;;;;;;;7.18;6.47;;;;;;;;;;5016739;28;20121;-65
2022/02/13 13:35:29;;;;;;;5.82;5.32;;;;;;;;;;5016349;28;20068;-65
2022/02/13 13:37:55;;;;;;;6.85;5.20;;;;;;;;;;5019976;28;20063;-65
2022/02/13 13:40:22;;;;;;;9.73;5.47;;;;;;;;;;5021253;28;20482;-65
2022/02/13 13:42:51;;;;;;;7.07;5.38;;;;;;;;;;5019729;28;20044;-66
2022/02/13 13:45:36;;;;;;;6.80;6.20;;;;;;;;;;5016541;28;20057;-64
2022/02/13 13:48:03;;;;;;;7.15;6.38;;;;;;;;;;5017155;28;20034;-65
2022/02/13 13:50:34;;;;;;;5.45;4.93;;;;;;;;;;5018018;28;20412;-64
2022/02/13 13:53:00;;;;;;;5.82;5.22;;;;;;;;;;5008960;28;20490;-65
2022/02/13 13:55:25;;;;;;;6.28;5.78;;;;;;;;;;5018149;28;20034;-65
2022/02/13 13:57:51;;;;;;;6.43;5.88;;;;;;;;;;5020390;28;20087;-65
2022/02/13 14:00:17;;;;;;;5.25;4.82;;;;;;;;;;5020631;28;20064;-65
2022/02/13 14:02:54;;;;;;;5.68;5.22;;;;;;;;;;5021249;28;20133;-65
2022/02/13 14:05:19;;;;;;;6.43;5.80;;;;;;;;;;5018931;28;20025;-60
2022/02/13 14:07:46;;;;;;;5.07;4.68;;;;;;;;;;5018053;28;20040;-61
2022/02/13 14:10:12;;;;;;;6.40;5.80;;;;;;;;;;5021541;28;20057;-61
2022/02/13 14:12:38;;;;;;;5.65;5.15;;;;;;;;;;5017671;28;20033;-59
2022/02/13 14:15:04;;;;;;;4.95;4.55;;;;;;;;;;5019315;28;20061;-61
2022/02/13 14:17:29;;;;;;;6.00;5.40;;;;;;;;;;5015185;28;20050;-60
2022/02/13 14:19:55;;;;;;;6.18;5.68;;;;;;;;;;5019679;28;20104;-65
2022/02/13 14:22:20;;;;;;;5.63;5.13;;;;;;;;;;5021176;28;20061;-64
2022/02/13 14:24:46;;;;;;;6.10;5.53;;;;;;;;;;5021050;28;20037;-63
2022/02/13 14:27:11;;;;;;;6.30;5.80;;;;;;;;;;5019811;28;20305;-60
2022/02/13 14:29:37;;;;;;;6.18;5.68;;;;;;;;;;5017133;28;20052;-60
2022/02/13 14:32:06;;;;;;;6.28;5.78;;;;;;;;;;5017030;28;20037;-63
2022/02/13 14:34:32;;;;;;;5.50;5.00;;;;;;;;;;5020054;28;20041;-65
2022/02/13 14:36:58;;;;;;;5.95;5.45;;;;;;;;;;5024014;28;20052;-65
2022/02/13 14:39:24;;;;;;;5.28;4.88;;;;;;;;;;5015953;28;20037;-65
2022/02/13 14:41:49;;;;;;;5.43;4.93;;;;;;;;;;5017545;28;20038;-65
2022/02/13 14:44:15;;;;;;;6.47;5.50;;;;;;;;;;5015856;28;20475;-65